createdAt,value
2019-01-02T00:01:42.104Z,5.36
2019-01-02T00:04:10.670Z,5.31
2019-01-02T00:06:38.862Z,5.38
2019-01-02T00:09:07.377Z,5.26
2019-01-02T00:11:35.570Z,5.11
2019-01-02T00:14:03.796Z,5.04
2019-01-02T00:16:32.042Z,4.93
2019-01-02T00:19:00.531Z,4.89
2019-01-02T00:21:29.028Z,4.87
2019-01-02T00:23:57.276Z,4.78
2019-01-02T00:26:25.797Z,4.83
2019-01-02T00:28:54.003Z,4.87
2019-01-02T00:31:22.489Z,4.92
2019-01-02T00:33:50.784Z,4.99
2019-01-02T00:36:19.386Z,5.04
2019-01-02T00:38:47.582Z,5.06
2019-01-02T00:41:16.002Z,5.12
2019-01-02T00:43:44.202Z,5.12
2019-01-02T00:46:12.657Z,5.12
2019-01-02T00:48:40.864Z,5.13
2019-01-02T00:51:09.080Z,5.14
2019-01-02T00:53:37.277Z,5.21
2019-01-02T00:56:05.502Z,5.23
2019-01-02T00:58:33.715Z,5.26
2019-01-02T01:01:01.912Z,5.24
2019-01-02T01:03:30.143Z,5.23
2019-01-02T01:05:58.621Z,5.23
2019-01-02T01:08:26.827Z,5.27
2019-01-02T01:10:55.455Z,5.27
2019-01-02T01:13:23.670Z,5.28
2019-01-02T01:15:52.056Z,5.30
2019-01-02T01:18:20.275Z,5.30
2019-01-02T01:20:48.852Z,5.32
2019-01-02T01:23:17.060Z,5.29
2019-01-02T01:25:45.546Z,5.21
2019-01-02T01:28:13.769Z,5.19
2019-01-02T01:30:41.999Z,5.16
2019-01-02T01:33:10.380Z,5.12
2019-01-02T01:35:38.600Z,4.94
2019-01-02T01:38:06.784Z,4.87
2019-01-02T01:40:35.385Z,4.91
2019-01-02T01:43:03.570Z,4.78
2019-01-02T01:45:32.160Z,4.76
2019-01-02T01:48:00.382Z,4.68
2019-01-02T01:50:28.576Z,4.53
2019-01-02T01:52:57.082Z,4.46
2019-01-02T01:55:25.310Z,4.43
2019-01-02T01:57:53.889Z,4.47
2019-01-02T02:00:22.118Z,4.40
2019-01-02T02:02:50.311Z,4.39
2019-01-02T02:05:18.812Z,4.36
2019-01-02T02:07:47.059Z,4.22
2019-01-02T02:10:16.282Z,4.26
2019-01-02T02:12:44.467Z,4.24
2019-01-02T02:15:12.697Z,4.23
2019-01-02T02:17:41.387Z,4.22
2019-01-02T02:20:11.540Z,4.13
2019-01-02T02:22:39.743Z,4.15
2019-01-02T02:25:14.078Z,4.13
2019-01-02T02:27:42.308Z,4.13
2019-01-02T02:30:13.607Z,4.06
2019-01-02T02:32:42.665Z,4.06
2019-01-02T02:35:11.159Z,4.05
2019-01-02T02:37:39.366Z,3.99
2019-01-02T02:40:10.643Z,3.97
2019-01-02T02:42:38.863Z,3.97
2019-01-02T02:45:10.194Z,3.89
2019-01-02T02:47:38.666Z,3.88
2019-01-02T02:50:12.387Z,3.93
2019-01-02T02:52:40.585Z,3.91
2019-01-02T02:55:11.346Z,3.89
2019-01-02T02:57:39.547Z,3.87
2019-01-02T03:00:12.887Z,3.84
2019-01-02T03:02:41.103Z,3.84
2019-01-02T03:05:10.969Z,3.84
2019-01-02T03:07:39.550Z,3.81
2019-01-02T03:10:12.962Z,3.88
2019-01-02T03:12:41.596Z,3.83
2019-01-02T03:15:11.465Z,3.77
2019-01-02T03:17:39.659Z,3.83
2019-01-02T03:20:10.428Z,3.73
2019-01-02T03:22:38.921Z,3.72
2019-01-02T03:25:09.470Z,3.74
2019-01-02T03:27:38.141Z,3.73
2019-01-02T03:30:09.979Z,3.76
2019-01-02T03:32:38.584Z,3.71
2019-01-02T03:35:08.419Z,3.74
2019-01-02T03:37:36.633Z,3.77
2019-01-02T03:40:08.102Z,3.78
2019-01-02T03:42:36.317Z,3.73
2019-01-02T03:45:06.914Z,3.68
2019-01-02T03:47:35.116Z,3.71
2019-01-02T03:50:04.294Z,3.70
2019-01-02T03:52:32.514Z,3.68
2019-01-02T03:55:00.772Z,3.74
2019-01-02T03:57:28.988Z,3.72
2019-01-02T03:59:57.186Z,3.71
2019-01-02T04:02:25.401Z,3.69
2019-01-02T04:04:53.668Z,3.69
2019-01-02T04:07:21.895Z,3.69
2019-01-02T04:09:50.105Z,3.69
2019-01-02T04:12:18.320Z,3.68
2019-01-02T04:14:46.514Z,3.67
2019-01-02T04:17:14.728Z,3.72
2019-01-02T04:19:42.913Z,3.79
2019-01-02T04:22:11.141Z,3.84
2019-01-02T04:24:39.339Z,3.82
2019-01-02T04:27:07.532Z,3.76
2019-01-02T04:29:35.748Z,3.78
2019-01-02T04:32:03.947Z,3.75
2019-01-02T04:34:32.162Z,3.75
2019-01-02T04:37:00.385Z,3.81
2019-01-02T04:39:28.580Z,3.87
2019-01-02T04:41:56.804Z,3.88
2019-01-02T04:44:25.027Z,3.90
2019-01-02T04:46:53.242Z,3.89
2019-01-02T04:49:21.450Z,3.94
2019-01-02T04:51:49.649Z,3.94
2019-01-02T04:54:17.881Z,3.94
2019-01-02T04:56:46.103Z,4.00
2019-01-02T04:59:14.324Z,4.00
2019-01-02T05:01:42.521Z,3.97
2019-01-02T05:04:10.732Z,3.85
2019-01-02T05:06:38.922Z,3.79
2019-01-02T05:09:07.621Z,3.76
2019-01-02T05:11:35.800Z,3.66
2019-01-02T05:14:04.032Z,3.71
2019-01-02T05:16:32.238Z,3.77
2019-01-02T05:19:00.458Z,3.75
2019-01-02T05:21:28.696Z,3.88
2019-01-02T05:23:56.902Z,3.89
2019-01-02T05:26:25.085Z,3.93
2019-01-02T05:28:53.297Z,4.02
2019-01-02T05:31:21.495Z,4.01
2019-01-02T05:33:49.702Z,3.97
2019-01-02T05:36:17.903Z,3.99
2019-01-02T05:38:46.138Z,4.05
2019-01-02T05:41:14.322Z,4.01
2019-01-02T05:43:42.532Z,3.98
2019-01-02T05:46:10.728Z,3.89
2019-01-02T05:48:38.942Z,3.92
2019-01-02T05:51:07.187Z,3.90
2019-01-02T05:53:35.354Z,3.87
2019-01-02T05:56:03.552Z,3.78
2019-01-02T05:58:31.760Z,3.75
2019-01-02T06:00:59.967Z,3.70
2019-01-02T06:03:28.173Z,3.70
2019-01-02T06:05:56.396Z,3.67
2019-01-02T06:08:24.634Z,3.70
2019-01-02T06:10:52.842Z,3.66
2019-01-02T06:13:21.024Z,3.65
2019-01-02T06:15:49.242Z,3.67
2019-01-02T06:18:17.473Z,3.64
2019-01-02T06:20:45.669Z,3.63
2019-01-02T06:23:13.898Z,3.69
2019-01-02T06:25:42.096Z,3.75
2019-01-02T06:28:10.316Z,3.87
2019-01-02T06:30:38.563Z,3.96
2019-01-02T06:33:06.813Z,4.01
2019-01-02T06:35:35.037Z,4.04
2019-01-02T06:38:03.256Z,4.01
2019-01-02T06:40:31.479Z,3.98
2019-01-02T06:42:59.766Z,3.96
2019-01-02T06:45:27.983Z,3.99
2019-01-02T06:47:56.212Z,3.97
2019-01-02T06:50:24.403Z,3.91
2019-01-02T06:52:52.622Z,3.81
2019-01-02T06:55:20.842Z,3.87
2019-01-02T06:57:49.023Z,3.83
2019-01-02T07:00:20.502Z,3.81
2019-01-02T07:02:48.718Z,3.76
2019-01-02T07:05:16.930Z,3.77
2019-01-02T07:07:45.126Z,3.73
2019-01-02T07:10:13.347Z,3.66
2019-01-02T07:12:41.542Z,3.61
2019-01-02T07:15:10.344Z,3.70
2019-01-02T07:17:38.565Z,3.64
2019-01-02T07:20:09.858Z,3.63
2019-01-02T07:22:38.075Z,3.60
2019-01-02T07:25:08.289Z,3.62
2019-01-02T07:27:36.491Z,3.66
2019-01-02T07:30:11.045Z,3.66
2019-01-02T07:32:39.300Z,3.66
2019-01-02T07:35:10.780Z,3.70
2019-01-02T07:37:44.899Z,3.70
2019-01-02T07:40:28.514Z,3.71
2019-01-02T07:43:23.762Z,3.72
2019-01-02T07:46:01.204Z,3.72
2019-01-02T07:48:44.483Z,3.74
2019-01-02T07:51:16.049Z,3.77
2019-01-02T07:54:02.879Z,3.82
2019-01-02T07:56:43.177Z,3.80
2019-01-02T07:59:14.654Z,3.89
2019-01-02T08:01:49.055Z,3.89
2019-01-02T08:04:23.380Z,3.88
2019-01-02T08:07:19.203Z,3.91
2019-01-02T08:10:17.214Z,3.88
2019-01-02T08:12:57.585Z,3.89
2019-01-02T08:15:31.929Z,3.89
2019-01-02T08:18:06.074Z,3.90
2019-01-02T08:21:11.008Z,3.89
2019-01-02T08:24:03.588Z,3.91
2019-01-02T08:26:50.325Z,3.90
2019-01-02T08:29:30.711Z,3.97
2019-01-02T08:32:23.304Z,3.96
2019-01-02T08:34:54.807Z,4.00
2019-01-02T08:37:41.239Z,3.99
2019-01-02T08:40:28.821Z,3.99
2019-01-02T08:43:05.857Z,4.04
2019-01-02T08:45:56.642Z,4.06
2019-01-02T08:48:47.551Z,4.11
2019-01-02T08:51:35.319Z,4.11
2019-01-02T08:54:09.645Z,4.10
2019-01-02T08:56:55.983Z,4.11
2019-01-02T08:59:42.479Z,4.16
2019-01-02T09:02:16.613Z,4.19
2019-01-02T09:04:56.963Z,4.28
2019-01-02T09:07:37.173Z,4.32
2019-01-02T09:10:39.179Z,4.32
2019-01-02T09:13:37.808Z,4.26
2019-01-02T09:16:42.389Z,4.26
2019-01-02T09:19:16.655Z,4.34
2019-01-02T09:21:56.996Z,4.55
2019-01-02T09:24:40.324Z,4.62
2019-01-02T09:27:29.224Z,4.83
2019-01-02T09:30:03.690Z,4.90
2019-01-02T09:32:44.421Z,5.28
2019-01-02T09:35:15.883Z,5.28
2019-01-02T09:38:10.022Z,5.34
2019-01-02T09:40:47.604Z,5.25
2019-01-02T09:43:33.931Z,5.34
2019-01-02T09:46:35.928Z,5.51
2019-01-02T09:49:35.263Z,5.45
2019-01-02T09:52:15.775Z,5.42
2019-01-02T09:54:53.016Z,5.26
2019-01-02T09:57:24.456Z,5.28
2019-01-02T09:59:58.608Z,5.28
2019-01-02T10:02:51.943Z,5.33
2019-01-02T10:05:53.161Z,5.36
2019-01-02T10:08:39.785Z,5.43
2019-01-02T10:11:11.283Z,5.51
2019-01-02T10:13:51.457Z,5.73
2019-01-02T10:16:32.063Z,5.90
2019-01-02T10:19:06.535Z,5.95
2019-01-02T10:22:02.331Z,6.12
2019-01-02T10:24:54.583Z,6.22
2019-01-02T10:27:37.197Z,6.40
2019-01-02T10:30:17.595Z,6.48
2019-01-02T10:32:54.563Z,7.03
2019-01-02T10:35:38.021Z,7.81
2019-01-02T10:38:21.669Z,7.87
2019-01-02T10:40:58.853Z,7.44
2019-01-02T10:43:54.373Z,7.21
2019-01-02T10:46:31.299Z,6.97
2019-01-02T10:49:11.422Z,7.02
2019-01-02T10:51:57.667Z,6.98
2019-01-02T10:54:34.873Z,6.94
2019-01-02T10:57:23.107Z,7.03
2019-01-02T11:00:02.959Z,7.26
2019-01-02T11:02:43.154Z,7.40
2019-01-02T11:05:29.585Z,7.34
2019-01-02T11:08:20.417Z,7.29
2019-01-02T11:11:03.582Z,7.22
2019-01-02T11:13:40.401Z,7.30
2019-01-02T11:16:23.675Z,7.27
2019-01-02T11:19:00.697Z,7.32
2019-01-02T11:21:48.619Z,6.97
2019-01-02T11:24:45.709Z,6.78
2019-01-02T11:27:35.067Z,7.06
2019-01-02T11:30:23.233Z,7.48
2019-01-02T11:33:14.487Z,7.48
2019-01-02T11:36:11.607Z,7.44
2019-01-02T11:38:46.015Z,7.38
2019-01-02T11:41:35.491Z,7.58
2019-01-02T11:44:21.400Z,7.20
2019-01-02T11:46:48.369Z,7.15
2019-01-02T11:49:16.567Z,7.25
2019-01-02T11:51:44.802Z,6.74
2019-01-02T11:54:12.977Z,6.46
2019-01-02T11:56:41.159Z,6.51
2019-01-02T11:59:09.435Z,6.83
2019-01-02T12:01:37.636Z,7.25
2019-01-02T12:04:05.831Z,7.07
2019-01-02T12:06:34.111Z,6.91
2019-01-02T12:09:03.588Z,6.59
2019-01-02T12:11:31.767Z,6.61
2019-01-02T12:14:00.017Z,6.53
2019-01-02T12:16:28.243Z,6.58
2019-01-02T12:18:56.459Z,6.69
2019-01-02T12:21:24.676Z,6.58
2019-01-02T12:23:52.896Z,6.46
2019-01-02T12:26:21.089Z,6.28
2019-01-02T12:28:49.305Z,6.17
2019-01-02T12:31:17.512Z,6.15
2019-01-02T12:33:45.706Z,6.15
2019-01-02T12:36:13.919Z,6.16
2019-01-02T12:38:42.113Z,6.13
2019-01-02T12:41:10.349Z,6.18
2019-01-02T12:43:38.538Z,6.19
2019-01-02T12:46:06.731Z,6.16
2019-01-02T12:48:34.933Z,6.07
2019-01-02T12:51:03.138Z,5.98
2019-01-02T12:53:31.353Z,5.97
2019-01-02T12:55:59.622Z,5.91
2019-01-02T12:58:27.850Z,5.88
2019-01-02T13:00:58.453Z,5.87
2019-01-02T13:03:52.545Z,5.82
2019-01-02T13:06:35.891Z,5.78
2019-01-02T13:09:18.785Z,5.67
2019-01-02T13:11:53.243Z,5.64
2019-01-02T13:14:47.586Z,5.64
2019-01-02T13:17:21.975Z,5.59
2019-01-02T13:20:02.515Z,5.53
2019-01-02T13:22:33.992Z,5.51
2019-01-02T13:25:11.435Z,5.50
2019-01-02T13:27:45.564Z,5.50
2019-01-02T13:30:48.861Z,5.47
2019-01-02T13:33:32.167Z,5.51
2019-01-02T13:36:06.568Z,5.53
2019-01-02T13:38:43.837Z,5.55
2019-01-02T13:41:30.260Z,5.41
2019-01-02T13:44:04.383Z,5.38
2019-01-02T13:46:53.490Z,5.32
2019-01-02T13:49:39.909Z,5.33
2019-01-02T13:52:08.126Z,5.35
2019-01-02T13:54:36.354Z,5.31
2019-01-02T13:57:04.553Z,5.38
2019-01-02T13:59:32.767Z,5.31
2019-01-02T14:02:00.966Z,5.28
2019-01-02T14:04:29.261Z,5.26
2019-01-02T14:06:57.533Z,5.25
2019-01-02T14:09:25.810Z,5.26
2019-01-02T14:11:54.009Z,5.27
2019-01-02T14:14:22.218Z,5.53
2019-01-02T14:16:50.412Z,5.75
2019-01-02T14:19:18.622Z,5.63
2019-01-02T14:21:46.855Z,5.43
2019-01-02T14:24:15.059Z,5.30
2019-01-02T14:26:43.268Z,5.25
2019-01-02T14:29:11.492Z,5.22
2019-01-02T14:31:39.689Z,5.14
2019-01-02T14:34:07.913Z,5.11
2019-01-02T14:36:36.107Z,5.11
2019-01-02T14:39:06.567Z,5.14
2019-01-02T14:41:34.765Z,5.12
2019-01-02T14:44:02.994Z,5.25
2019-01-02T14:46:31.185Z,5.16
2019-01-02T14:48:59.401Z,5.09
2019-01-02T14:51:27.613Z,5.17
2019-01-02T14:53:55.809Z,5.07
2019-01-02T14:56:24.016Z,5.13
2019-01-02T14:58:52.235Z,5.29
2019-01-02T15:01:20.421Z,5.30
2019-01-02T15:03:48.652Z,5.13
2019-01-02T15:06:16.851Z,5.01
2019-01-02T15:08:45.105Z,4.93
2019-01-02T15:11:13.480Z,4.87
2019-01-02T15:13:41.757Z,4.86
2019-01-02T15:16:09.949Z,4.82
2019-01-02T15:18:38.171Z,4.75
2019-01-02T15:21:06.350Z,4.68
2019-01-02T15:23:34.565Z,4.68
2019-01-02T15:26:02.795Z,4.60
2019-01-02T15:28:30.978Z,4.54
2019-01-02T15:30:59.184Z,4.55
2019-01-02T15:33:27.385Z,4.47
2019-01-02T15:35:55.604Z,4.41
2019-01-02T15:38:23.805Z,4.39
2019-01-02T15:40:52.009Z,4.40
2019-01-02T15:43:20.233Z,4.35
2019-01-02T15:45:48.459Z,4.33
2019-01-02T15:48:16.656Z,4.30
2019-01-02T15:50:44.886Z,4.25
2019-01-02T15:53:13.091Z,4.33
2019-01-02T15:55:41.274Z,4.42
2019-01-02T15:58:09.518Z,4.41
2019-01-02T16:00:37.721Z,4.31
2019-01-02T16:03:05.929Z,4.24
2019-01-02T16:05:34.143Z,4.18
2019-01-02T16:08:02.354Z,4.19
2019-01-02T16:10:30.551Z,4.12
2019-01-02T16:12:58.765Z,4.08
2019-01-02T16:15:26.955Z,4.05
2019-01-02T16:17:55.198Z,3.98
2019-01-02T16:20:23.530Z,3.97
2019-01-02T16:22:51.731Z,3.99
2019-01-02T16:25:19.929Z,3.97
2019-01-02T16:27:48.169Z,3.95
2019-01-02T16:30:16.394Z,3.91
2019-01-02T16:32:44.624Z,3.89
2019-01-02T16:35:12.849Z,3.90
2019-01-02T16:37:41.140Z,3.82
2019-01-02T16:40:11.074Z,3.83
2019-01-02T16:42:39.305Z,3.78
2019-01-02T16:45:08.240Z,3.76
2019-01-02T16:47:36.452Z,3.72
2019-01-02T16:50:05.409Z,3.68
2019-01-02T16:52:33.616Z,3.66
2019-01-02T16:55:01.883Z,3.63
2019-01-02T16:57:30.002Z,3.61
2019-01-02T16:59:58.239Z,3.59
2019-01-02T17:02:26.430Z,3.57
2019-01-02T17:04:54.692Z,3.52
2019-01-02T17:07:22.944Z,3.49
2019-01-02T17:09:51.157Z,3.49
2019-01-02T17:12:19.377Z,3.45
2019-01-02T17:14:47.608Z,3.44
2019-01-02T17:17:15.821Z,3.39
2019-01-02T17:19:44.057Z,3.36
2019-01-02T17:22:12.267Z,3.32
2019-01-02T17:24:40.475Z,3.34
2019-01-02T17:27:08.669Z,3.27
2019-01-02T17:29:36.905Z,3.33
2019-01-02T17:32:05.105Z,3.29
2019-01-02T17:34:33.294Z,3.27
2019-01-02T17:37:01.522Z,3.23
2019-01-02T17:39:29.725Z,3.23
2019-01-02T17:41:57.946Z,3.14
2019-01-02T17:44:26.144Z,3.16
2019-01-02T17:46:54.354Z,3.12
2019-01-02T17:49:22.628Z,3.13
2019-01-02T17:51:50.809Z,3.11
2019-01-02T17:54:18.994Z,3.11
2019-01-02T17:56:47.246Z,3.09
2019-01-02T17:59:15.449Z,3.07
2019-01-02T18:01:46.114Z,3.03
2019-01-02T18:04:15.585Z,3.06
2019-01-02T18:06:43.917Z,3.03
2019-01-02T18:09:12.151Z,3.02
2019-01-02T18:11:40.356Z,3.01
2019-01-02T18:14:08.599Z,2.98
2019-01-02T18:16:36.803Z,2.98
2019-01-02T18:19:05.011Z,2.99
2019-01-02T18:21:34.018Z,2.96
2019-01-02T18:24:02.257Z,2.95
2019-01-02T18:26:30.526Z,2.94
2019-01-02T18:28:58.745Z,2.93
2019-01-02T18:31:27.024Z,2.91
2019-01-02T18:33:55.311Z,2.86
2019-01-02T18:36:23.536Z,2.86
2019-01-02T18:38:52.501Z,2.81
2019-01-02T18:41:20.764Z,2.81
2019-01-02T18:43:49.026Z,2.82
2019-01-02T18:46:17.254Z,2.81
2019-01-02T18:48:45.545Z,2.80
2019-01-02T18:51:13.823Z,2.81
2019-01-02T18:53:42.139Z,2.80
2019-01-02T18:56:10.447Z,2.75
2019-01-02T18:58:38.716Z,2.73
2019-01-02T19:01:07.713Z,2.73
2019-01-02T19:03:36.073Z,2.72
2019-01-02T19:06:04.338Z,2.70
2019-01-02T19:08:32.685Z,2.69
2019-01-02T19:11:00.992Z,2.64
2019-01-02T19:13:29.277Z,2.63
2019-01-02T19:15:57.547Z,2.63
2019-01-02T19:18:26.438Z,2.64
2019-01-02T19:20:54.707Z,2.61
2019-01-02T19:23:22.976Z,2.61
2019-01-02T19:25:51.282Z,2.58
2019-01-02T19:28:19.560Z,2.56
2019-01-02T19:30:47.835Z,2.53
2019-01-02T19:33:16.231Z,2.53
2019-01-02T19:35:44.572Z,2.50
2019-01-02T19:38:12.876Z,2.49
2019-01-02T19:40:41.185Z,2.47
2019-01-02T19:43:09.520Z,2.44
2019-01-02T19:45:37.813Z,2.43
2019-01-02T19:48:06.139Z,2.42
2019-01-02T19:50:35.292Z,2.42
2019-01-02T19:53:03.568Z,2.37
2019-01-02T19:55:32.704Z,2.36
2019-01-02T19:58:01.639Z,2.32
2019-01-02T20:00:31.208Z,2.29
2019-01-02T20:03:02.082Z,2.30
2019-01-02T20:05:30.324Z,2.31
2019-01-02T20:07:58.840Z,2.24
2019-01-02T20:10:27.238Z,2.23
2019-01-02T20:12:55.523Z,2.22
2019-01-02T20:15:24.566Z,2.22
2019-01-02T20:17:52.971Z,2.19
2019-01-02T20:20:21.275Z,2.18
2019-01-02T20:22:49.642Z,2.18
2019-01-02T20:25:19.751Z,2.16
2019-01-02T20:27:48.310Z,2.17
2019-01-02T20:30:16.585Z,2.16
2019-01-02T20:32:44.933Z,2.14
2019-01-02T20:35:15.226Z,2.08
2019-01-02T20:37:43.543Z,2.11
2019-01-02T20:40:11.861Z,2.10
2019-01-02T20:42:40.145Z,2.07
2019-01-02T20:45:09.415Z,2.07
2019-01-02T20:47:37.770Z,2.05
2019-01-02T20:50:08.666Z,2.01
2019-01-02T20:52:36.953Z,2.01
2019-01-02T20:55:06.638Z,2.02
2019-01-02T20:57:34.914Z,1.99
2019-01-02T21:00:03.247Z,1.99
2019-01-02T21:02:31.661Z,1.99
2019-01-02T21:05:00.958Z,2.00
2019-01-02T21:07:29.246Z,1.96
2019-01-02T21:09:57.574Z,1.97
2019-01-02T21:12:25.843Z,1.93
2019-01-02T21:14:54.126Z,1.89
2019-01-02T21:17:22.449Z,1.94
2019-01-02T21:19:50.829Z,1.93
2019-01-02T21:22:19.092Z,1.91
2019-01-02T21:24:47.405Z,1.91
2019-01-02T21:27:15.670Z,1.89
2019-01-02T21:29:44.029Z,1.91
2019-01-02T21:32:12.352Z,1.87
2019-01-02T21:34:41.649Z,1.84
2019-01-02T21:37:09.996Z,1.83
2019-01-02T21:39:38.292Z,1.83
2019-01-02T21:42:06.548Z,1.83
2019-01-02T21:44:34.869Z,1.83
2019-01-02T21:47:03.709Z,1.80
2019-01-02T21:49:32.004Z,1.79
2019-01-02T21:52:00.308Z,1.78
2019-01-02T21:54:28.629Z,1.75
2019-01-02T21:56:56.933Z,1.75
2019-01-02T21:59:25.190Z,1.75
2019-01-02T22:01:53.470Z,1.67
2019-01-02T22:04:21.765Z,1.72
2019-01-02T22:06:50.072Z,1.73
2019-01-02T22:09:18.592Z,1.66
2019-01-02T22:11:46.918Z,1.69
2019-01-02T22:14:15.250Z,1.67
2019-01-02T22:16:43.499Z,1.65
2019-01-02T22:19:11.762Z,1.58
2019-01-02T22:21:40.060Z,1.58
2019-01-02T22:24:08.334Z,1.55
2019-01-02T22:26:36.627Z,1.52
2019-01-02T22:29:04.975Z,1.53
2019-01-02T22:31:33.280Z,1.54
2019-01-02T22:34:01.558Z,1.57
2019-01-02T22:36:29.841Z,1.56
2019-01-02T22:38:58.118Z,1.56
2019-01-02T22:41:27.658Z,1.54
2019-01-02T22:43:56.042Z,1.53
2019-01-02T22:46:24.275Z,1.54
2019-01-02T22:48:52.540Z,1.52
2019-01-02T22:51:20.808Z,1.49
2019-01-02T22:53:49.039Z,1.49
2019-01-02T22:56:17.263Z,1.43
2019-01-02T22:58:45.508Z,1.47
2019-01-02T23:01:15.348Z,1.44
2019-01-02T23:04:01.700Z,1.46
2019-01-02T23:06:31.642Z,1.45
2019-01-02T23:09:16.441Z,1.42
2019-01-02T23:11:52.165Z,1.37
2019-01-02T23:14:22.028Z,1.42
2019-01-02T23:16:51.864Z,1.38
2019-01-02T23:19:21.725Z,1.28
2019-01-02T23:22:07.398Z,1.25
2019-01-02T23:24:37.224Z,1.23
2019-01-02T23:27:16.041Z,1.16
2019-01-02T23:30:02.206Z,1.18
2019-01-02T23:32:48.142Z,1.16
2019-01-02T23:35:20.409Z,1.12
2019-01-02T23:37:59.535Z,1.12
2019-01-02T23:40:32.423Z,1.09
2019-01-02T23:43:08.223Z,1.05
2019-01-02T23:45:41.087Z,1.02
2019-01-02T23:48:27.204Z,1.03
2019-01-02T23:50:57.060Z,1.03
2019-01-02T23:53:26.881Z,1.02
2019-01-02T23:56:12.822Z,1.04
2019-01-02T23:58:48.249Z,1.05
